Latest Weather Observations for Casino

IDN60801

Issued at 6:32 pm EDT Sunday 15 December 2019 (issued every 10 minutes, with the page automatically refreshed every 10 minutes)

About weather observations | Map of weather stations | Latest weather observations for NSW | Other Formats
Station Details ID: 058208 Name: CASINO AIRPORT AWS Lat: -28.88 Lon: 153.06 Height: 20.9 m
Data from the previous 72 hours. | See also: Recent months at Casino
Date/Time
EDT
Temp
°C
App
Temp
°C
Dew
Point
°C
Rel
Hum
%
Delta-T
°C
Wind Press
QNH
hPa
Press
MSL
hPa
Rain since
9am
mm
Dir  Spd
km/h
Gust
km/h
Spd
kts
Gust
kts
15/06:30pm 31.5 31.0 20.8 53 7.2 E 24 30 13 16 1004.3 1004.2 0.0
15/06:00pm 32.5 32.4 20.7 49 7.9 ENE 22 30 12 16 1004.0 1003.9 0.0
15/05:30pm 33.2 32.2 19.7 45 8.9 ENE 24 33 13 18 1004.0 1003.9 0.0
15/05:00pm 33.8 33.4 20.2 44 9.1 ENE 22 30 12 16 1003.9 1003.8 0.0
15/04:30pm 33.4 31.9 20.2 46 8.8 ENE 28 37 15 20 1004.2 1004.1 0.0
15/04:00pm 35.2 36.3 19.6 40 10.4 E 13 26 7 14 1004.4 1004.3 0.0
15/03:30pm 35.7 34.6 13.2 26 13.7 ENE 11 17 6 9 1004.7 1004.6 0.0
15/03:00pm 35.7 36.5 16.4 31 12.3 NE 7 15 4 8 1005.0 1004.9 0.0
15/02:30pm 34.9 35.5 16.7 34 11.6 E 9 17 5 9 1005.4 1005.3 0.0
15/02:00pm 34.4 34.6 15.8 33 11.7 NW 9 15 5 8 1006.3 1006.2 0.0
15/01:30pm 34.0 33.8 16.8 35 11.0 NW 13 20 7 11 1007.0 1006.9 0.0
15/01:00pm 32.5 33.0 17.5 40 9.6 NW 11 19 6 10 1007.6 1007.5 0.0
15/12:30pm 31.4 32.3 18.4 46 8.4 N 11 17 6 9 1008.2 1008.1 0.0
15/12:00pm 30.8 32.7 19.8 52 7.2 N 9 17 5 9 1008.5 1008.4 0.0
15/11:30am 29.8 31.6 19.5 54 6.7 N 9 17 5 9 1009.0 1008.9 0.0
15/11:00am 28.9 30.8 19.8 58 6.0 NNE 9 15 5 8 1009.6 1009.5 0.0
15/10:30am 28.1 30.4 19.9 61 5.4 W 7 11 4 6 1009.8 1009.7 0.0
15/10:00am 27.3 29.8 19.9 64 4.8 NNE 6 11 3 6 1010.1 1010.0 0.0
15/09:30am 26.4 29.1 20.3 69 4.0 SSE 6 9 3 5 1010.5 1010.4 0.0
15/09:00am 25.6 28.4 20.8 75 3.2 SSW 7 9 4 5 1010.2 1010.1 0.0
15/08:30am 24.2 27.5 20.7 81 2.3 ENE 4 7 2 4 1010.5 1010.4 0.0
15/08:00am 23.2 25.9 20.3 84 1.9 WNW 6 7 3 4 1010.5 1010.4 0.0
15/07:30am 22.2 25.0 20.5 90 1.1 SSW 6 7 3 4 1010.5 1010.4 0.0
15/07:00am 21.4 24.7 20.0 92 0.9 N 2 6 1 3 1009.8 1009.7 0.0
15/06:30am 20.3 23.2 19.1 93 0.8 SSW 2 6 1 3 1009.7 1009.6 0.0
15/06:00am 19.5 21.6 18.2 92 0.8 SSW 4 7 2 4 1009.6 1009.5 0.0
15/05:30am 19.8 22.8 18.5 92 0.8 CALM 0 0 0 0 1009.6 1009.5 0.0
15/05:00am 19.8 22.7 18.3 91 0.9 CALM 0 0 0 0 1009.4 1009.3 0.0
15/04:30am 20.2 23.3 18.7 91 0.9 CALM 0 0 0 0 1009.0 1008.9 0.0
15/04:00am 20.1 23.1 18.4 90 1.1 CALM 0 0 0 0 1008.9 1008.8 0.0
15/03:30am 20.5 23.7 18.8 90 1.1 CALM 0 0 0 0 1008.9 1008.8 0.0
15/03:00am 20.6 23.0 18.9 90 1.1 SSW 4 7 2 4 1008.8 1008.7 0.0
15/02:30am 20.9 23.9 19.2 90 1.1 SSW 2 6 1 3 1008.9 1008.8 0.0
15/02:00am 20.9 24.1 18.8 88 1.3 CALM 0 0 0 0 1009.3 1009.2 0.0
15/01:30am 21.2 23.4 19.1 88 1.3 SSW 6 7 3 4 1009.2 1009.1 0.0
15/01:00am 21.7 23.9 19.1 85 1.6 SSW 6 6 3 3 1009.3 1009.2 0.0
15/12:30am 22.5 24.7 19.7 84 1.8 SSW 7 9 4 5 1009.5 1009.4 0.0
15/12:00am 22.5 24.7 19.7 84 1.8 SSW 7 11 4 6 1009.7 1009.6 0.0
 
Date/Time
EDT
Temp
°C
App
Temp
°C
Dew
Point
°C
Rel
Hum
%
Delta-T
°C
Wind Press
QNH
hPa
Press
MSL
hPa
Rain since
9am
mm
Dir  Spd
km/h
Gust
km/h
Spd
kts
Gust
kts
14/11:30pm 22.9 25.1 19.7 82 2.1 SSW 7 11 4 6 1009.7 1009.6 0.0
14/11:00pm 23.1 25.4 19.9 82 2.1 S 7 9 4 5 1010.0 1009.9 0.0
14/10:30pm 23.3 25.3 19.9 81 2.2 S 9 13 5 7 1009.6 1009.5 0.0
14/10:00pm 23.6 25.7 20.1 81 2.3 S 9 11 5 6 1009.4 1009.3 0.0
14/09:30pm 23.9 25.1 19.8 78 2.6 SE 13 17 7 9 1008.8 1008.7 0.0
14/09:00pm 24.3 25.5 20.0 77 2.8 SE 13 17 7 9 1008.4 1008.3 0.0
14/08:30pm 24.8 26.1 20.1 75 3.1 SE 13 17 7 9 1008.1 1008.0 0.0
14/08:00pm 25.5 26.4 20.1 72 3.5 ESE 15 20 8 11 1007.5 1007.4 0.0
14/07:30pm 26.3 26.4 19.9 68 4.2 E 19 26 10 14 1007.1 1007.0 0.0
14/07:00pm 27.2 26.1 19.5 62 5.0 ESE 24 33 13 18 1006.6 1006.5 0.0
14/06:30pm 28.7 27.9 19.3 56 6.1 E 22 28 12 15 1006.0 1005.9 0.0
14/06:00pm 29.4 27.9 19.4 55 6.5 E 26 33 14 18 1005.8 1005.7 0.0
14/05:30pm 30.2 28.5 18.9 50 7.3 ENE 26 35 14 19 1005.6 1005.5 0.0
14/05:00pm 30.8 28.0 18.2 47 8.1 E 30 39 16 21 1005.6 1005.5 0.0
14/04:30pm 32.2 30.4 18.8 45 8.7 E 26 35 14 19 1005.5 1005.4 0.0
14/04:00pm 34.4 34.6 15.8 33 11.7 SE 9 20 5 11 1005.7 1005.6 0.0
14/03:30pm 33.2 33.0 14.8 33 11.4 SE 9 15 5 8 1006.1 1006.0 0.0
14/03:00pm 32.6 32.4 15.6 36 10.6 ENE 11 17 6 9 1006.5 1006.4 0.0
14/02:30pm 32.7 32.9 15.7 36 10.6 N 9 17 5 9 1007.0 1006.9 0.0
14/02:00pm 31.5 31.8 15.9 39 9.7 E 9 15 5 8 1007.6 1007.5 0.0
14/01:30pm 30.8 31.2 14.8 37 9.8 N 6 7 3 4 1008.1 1008.0 0.0
14/01:00pm 30.3 31.2 16.0 42 8.9 ENE 6 13 3 7 1008.8 1008.7 0.0
14/12:30pm 29.3 30.3 17.8 50 7.3 NW 9 17 5 9 1009.4 1009.3 0.0
14/12:00pm 28.6 28.7 16.5 48 7.5 NW 11 17 6 9 1009.8 1009.7 0.0
14/11:30am 27.8 29.0 17.3 52 6.6 W 7 13 4 7 1010.2 1010.1 0.0
14/11:00am 27.1 28.6 18.1 58 5.7 NNW 7 15 4 8 1010.4 1010.3 0.0
14/10:30am 26.6 28.2 18.2 60 5.3 WNW 7 11 4 6 1010.6 1010.5 0.0
14/10:00am 25.8 27.0 18.2 63 4.8 NW 9 15 5 8 1010.8 1010.7 0.0
14/09:30am 25.2 26.0 19.1 69 3.9 NW 13 19 7 10 1011.0 1010.9 0.0
14/09:00am 24.4 25.4 18.6 70 3.7 NW 11 17 6 9 1011.3 1011.2 1.2
14/08:30am 23.2 25.0 18.7 76 2.8 N 7 11 4 6 1011.5 1011.4 1.2
14/08:00am 22.8 24.4 18.3 76 2.8 NE 7 11 4 6 1011.7 1011.6 1.2
14/07:30am 22.7 24.1 17.8 74 3.0 ENE 7 9 4 5 1011.2 1011.1 1.2
14/07:00am 22.0 24.8 18.0 78 2.5 CALM 0 0 0 0 1011.1 1011.0 1.2
14/06:30am 21.5 24.4 18.1 81 2.1 CALM 0 6 0 3 1010.9 1010.8 1.2
14/06:00am 21.4 23.2 18.4 83 1.9 SSW 6 7 3 4 1010.7 1010.6 1.2
14/05:30am 21.3 23.9 18.3 83 1.9 SSW 2 9 1 5 1010.5 1010.4 1.2
14/05:00am 21.5 24.7 18.9 85 1.6 CALM 0 0 0 0 1010.5 1010.4 1.2
14/04:30am 21.6 24.8 18.8 84 1.8 CALM 0 0 0 0 1010.6 1010.5 1.2
14/04:00am 21.5 24.7 18.9 85 1.6 CALM 0 0 0 0 1010.7 1010.6 1.2
14/03:30am 21.4 23.7 18.6 84 1.8 SSE 4 6 2 3 1010.8 1010.7 1.2
14/03:00am 21.6 24.8 18.8 84 1.8 CALM 0 0 0 0 1011.0 1010.9 1.2
14/02:30am 21.7 24.8 18.7 83 1.9 CALM 0 0 0 0 1011.0 1010.9 1.2
14/02:00am 21.6 24.6 18.4 82 2.0 CALM 0 0 0 0 1011.1 1011.0 1.2
14/01:30am 21.7 24.7 18.5 82 2.0 CALM 0 0 0 0 1011.4 1011.3 1.2
14/01:00am 21.7 24.6 18.3 81 2.1 CALM 0 0 0 0 1011.7 1011.6 1.2
14/12:30am 21.7 24.0 18.5 82 2.0 SSE 4 6 2 3 1011.9 1011.8 1.2
14/12:00am 21.8 23.7 18.6 82 2.0 SSE 6 9 3 5 1012.0 1011.9 1.2
 
Date/Time
EDT
Temp
°C
App
Temp
°C
Dew
Point
°C
Rel
Hum
%
Delta-T
°C
Wind Press
QNH
hPa
Press
MSL
hPa
Rain since
9am
mm
Dir  Spd
km/h
Gust
km/h
Spd
kts
Gust
kts
13/11:30pm 21.8 23.7 18.6 82 2.0 SSE 6 9 3 5 1012.1 1012.0 1.2
13/11:00pm 22.0 23.3 18.4 80 2.3 S 9 13 5 7 1012.3 1012.2 1.2
13/10:30pm 21.9 23.2 18.5 81 2.1 SE 9 13 5 7 1012.0 1011.9 1.2
13/10:00pm 22.2 24.0 18.8 81 2.1 S 7 11 4 6 1012.1 1012.0 1.2
13/09:30pm 22.2 24.0 18.8 81 2.1 SSE 7 15 4 8 1011.9 1011.8 1.2
13/09:00pm 22.2 23.3 18.8 81 2.1 SSE 11 15 6 8 1011.8 1011.7 1.2
13/08:30pm 22.1 22.0 18.7 81 2.1 ESE 17 22 9 12 1010.9 1010.8 1.2
13/08:00pm 22.6 24.2 19.2 81 2.2 SE 9 13 5 7 1011.0 1010.9 1.2
13/07:30pm 22.9 25.1 19.5 81 2.2 S 7 11 4 6 1011.0 1010.9 1.2
13/07:00pm 23.1 24.4 19.3 79 2.4 SSE 11 19 6 10 1009.8 1009.7 1.2
13/06:30pm 24.0 25.5 19.7 77 2.8 SSE 11 19 6 10 1009.6 1009.5 1.2
13/06:00pm 24.3 23.9 19.4 74 3.1 SE 20 30 11 16 1009.8 1009.7 1.2
13/05:30pm 26.1 26.1 19.0 65 4.6 S 17 24 9 13 1009.5 1009.4 1.2
13/05:00pm 27.4 28.8 19.5 62 5.1 SSE 11 17 6 9 1009.2 1009.1 1.2
13/04:30pm 27.2 28.5 19.3 62 5.1 SSE 11 17 6 9 1009.0 1008.9 1.2
13/04:00pm 27.2 28.9 19.3 62 5.1 S 9 15 5 8 1009.2 1009.1 1.2
13/03:30pm 26.3 28.8 20.2 69 4.0 S 7 13 4 7 1009.9 1009.8 1.2
13/03:00pm 25.5 27.9 20.1 72 3.5 SSW 7 11 4 6 1010.4 1010.3 1.2
13/02:30pm 24.2 28.0 20.1 78 2.7 CALM 0 0 0 0 1010.8 1010.7 1.2
13/02:00pm 23.3 25.6 19.9 81 2.2 NE 7 7 4 4 1011.0 1010.9 1.2
13/01:30pm 23.5 24.5 19.4 78 2.6 SE 13 26 7 14 1011.3 1011.2 1.2
13/01:00pm 25.2 26.1 20.9 77 2.8 SSW 17 24 9 13 1011.3 1011.2 1.2
13/12:30pm 24.5 26.7 21.2 82 2.2 SSW 11 15 6 8 1011.5 1011.4 1.2
13/12:00pm 23.0 25.7 20.7 87 1.5 SSE 7 11 4 6 1011.7 1011.6 1.2
13/11:30am 23.0 25.4 20.9 88 1.4 SSW 9 11 5 6 1012.0 1011.9 1.0
13/11:00am 23.3 26.2 20.6 85 1.8 SSE 6 9 3 5 1011.9 1011.8 0.0
13/10:30am 23.8 26.2 20.9 84 1.9 S 9 15 5 8 1012.0 1011.9 0.0
13/10:00am 23.6 26.5 21.7 89 1.3 S 9 15 5 8 1012.0 1011.9 0.0
13/09:30am 22.9 25.3 20.8 88 1.4 S 9 15 5 8 1012.0 1011.9 0.0
13/09:00am 22.3 24.2 20.6 90 1.1 SSW 11 15 6 8 1012.2 1012.1 1.0
13/08:30am 21.8 23.6 20.3 91 1.0 SSW 11 15 6 8 1012.4 1012.3 1.0
13/08:00am 21.6 23.3 20.1 91 1.0 SW 11 15 6 8 1012.2 1012.1 1.0
13/07:30am 21.4 23.9 19.9 91 1.0 WSW 6 9 3 5 1012.2 1012.1 0.8
13/07:00am 21.4 22.5 19.7 90 1.1 SSW 13 17 7 9 1012.1 1012.0 0.6
13/06:30am 21.8 24.3 19.9 89 1.2 S 6 9 3 5 1011.9 1011.8 0.4
13/06:00am 21.9 24.9 20.0 89 1.2 S 4 7 2 4 1011.7 1011.6 0.2
13/05:30am 21.9 24.3 20.0 89 1.2 S 7 9 4 5 1011.5 1011.4 0.2
13/05:00am 21.8 24.1 19.9 89 1.2 S 7 9 4 5 1011.2 1011.1 0.2
13/04:30am 21.9 24.3 20.0 89 1.2 S 7 9 4 5 1011.1 1011.0 0.2
13/04:00am 22.0 24.3 19.9 88 1.3 S 7 11 4 6 1011.3 1011.2 0.2
13/03:30am 22.1 24.1 20.0 88 1.3 S 9 13 5 7 1011.1 1011.0 0.0
13/03:00am 22.0 23.6 19.9 88 1.3 SSW 11 13 6 7 1011.0 1010.9 0.0
13/02:30am 22.1 23.3 19.8 87 1.5 SSW 13 17 7 9 1011.0 1010.9 0.0
13/02:00am 22.3 23.9 20.0 87 1.5 SSW 11 17 6 9 1011.2 1011.1 0.0
13/01:30am 22.4 23.7 20.1 87 1.5 SSW 13 19 7 10 1011.3 1011.2 0.0
13/01:00am 22.5 23.8 20.2 87 1.5 SW 13 17 7 9 1011.6 1011.5 0.0
13/12:30am 22.7 24.1 20.4 87 1.5 SW 13 17 7 9 1011.9 1011.8 0.0
13/12:00am 23.4 25.0 20.7 85 1.8 SW 13 15 7 8 1012.5 1012.4 0.0
 
Date/Time
EDT
Temp
°C
App
Temp
°C
Dew
Point
°C
Rel
Hum
%
Delta-T
°C
Wind Press
QNH
hPa
Press
MSL
hPa
Rain since
9am
mm
Dir  Spd
km/h
Gust
km/h
Spd
kts
Gust
kts
12/11:30pm 23.7 26.1 20.8 84 1.9 SW 9 11 5 6 1012.7 1012.6 0.0
12/11:00pm 23.8 25.4 20.7 83 2.0 SSW 13 17 7 9 1012.3 1012.2 0.0
12/10:30pm 24.2 26.4 20.5 80 2.4 SSE 9 13 5 7 1012.1 1012.0 0.0
12/10:00pm 24.3 27.2 20.6 80 2.4 ESE 6 7 3 4 1011.8 1011.7 0.0
12/09:30pm 24.3 26.0 20.2 78 2.7 SE 11 15 6 8 1011.4 1011.3 0.0
12/09:00pm 24.5 25.8 20.2 77 2.8 SSE 13 19 7 10 1011.6 1011.5 0.0
12/08:30pm 24.6 26.1 20.5 78 2.7 S 13 19 7 10 1011.3 1011.2 0.0
12/08:00pm 24.4 25.7 20.1 77 2.8 SSE 13 24 7 13 1010.7 1010.6 0.0
12/07:30pm 24.8 24.9 20.3 76 2.9 SSE 20 32 11 17 1010.2 1010.1 0.0
12/07:00pm 25.4 25.1 20.4 74 3.3 SE 22 32 12 17 1010.5 1010.4 0.0

Other formats

Comma delimited format used in spreadsheet applications
http://www.bom.gov.au/fwo/IDN60801/IDN60801.94573.axf

JavaScript Object Notation format (JSON) in row-major order
http://www.bom.gov.au/fwo/IDN60801/IDN60801.94573.json

Data quality

Most of these data are generated automatically and are frequently updated. Quality checks on data are not normally performed. It is possible for incorrect values to appear. Refer to information at About Latest Weather Observations and please check the disclaimer before using these data.